Portada
METAR-TAF:

METAR-TAF

Aeropuertos :

Johannesburgo, Sudáfrica

latitud: 26-09S, longitud: 28-00E, altitud: 1626 m

Observación

El informe se hizo hace 30 minutos, a las 03:00 UTC
Viento 1 kt del suroeste
Temperatura 7°C
Humedad 76%
Presión 1026 hPa

METAR: FAJB 240300Z AUTO 22001KT //// // ////// 07/03 Q1026

Hora: 05:30 (03:30 UTC)


TAF: falta

Observaciones y pronósticos meteorológicos de más de 4000 aeropuertos (mensajes METAR y TAF).

Los puntos amarillos y rojos representan las estaciones disponibles.

Ponga el ratón en el punto deseado para ver el nombre de la estación.

Haga clic para ver las observaciones y los pronósticos meteorológicos.

Para cambiar el mapa : haga clic en los botones verdes con una cruz de color negro para hacer un zoom, en el botón verde con un guión para alejar o en las flechas verdes para mapas adyacentes.


METAR-TAF: